createdAt,value
2023-10-20T00:00:42.577Z,95598.69
2023-10-20T00:03:10.406Z,95592.63
2023-10-20T00:05:37.846Z,95589.44
2023-10-20T00:08:05.198Z,95592.81
2023-10-20T00:10:36.472Z,95590.06
2023-10-20T00:13:04.000Z,95586.97
2023-10-20T00:15:30.728Z,95587.72
2023-10-20T00:17:57.555Z,95588.97
2023-10-20T00:20:25.357Z,95588.50
2023-10-20T00:22:52.016Z,95593.97
2023-10-20T00:25:18.699Z,95595.06
2023-10-20T00:27:46.563Z,95594.66
2023-10-20T00:30:13.332Z,95593.09
2023-10-20T00:32:43.081Z,95580.47
2023-10-20T00:35:10.901Z,95576.25
2023-10-20T00:37:37.900Z,95567.59
2023-10-20T00:40:13.924Z,95568.72
2023-10-20T00:42:40.849Z,95569.84
2023-10-20T00:45:09.513Z,95562.94
2023-10-20T00:47:37.523Z,95564.50
2023-10-20T00:50:05.960Z,95562.56
2023-10-20T00:52:32.851Z,95564.75
2023-10-20T00:54:59.785Z,95573.16
2023-10-20T00:57:27.969Z,95563.22
2023-10-20T00:59:54.706Z,95557.88
2023-10-20T01:02:21.770Z,95558.56
2023-10-20T01:04:49.574Z,95562.03
2023-10-20T01:07:16.424Z,95556.22
2023-10-20T01:09:44.167Z,95562.88
2023-10-20T01:12:11.201Z,95560.19
2023-10-20T01:14:38.479Z,95555.88
2023-10-20T01:17:05.421Z,95553.91
2023-10-20T01:19:33.138Z,95539.34
2023-10-20T01:22:01.165Z,95540.19
2023-10-20T01:24:28.192Z,95537.94
2023-10-20T01:26:54.914Z,95527.50
2023-10-20T01:29:21.773Z,95532.16
2023-10-20T01:31:48.494Z,95516.97
2023-10-20T01:34:15.305Z,95517.34
2023-10-20T01:36:42.749Z,95520.41
2023-10-20T01:39:09.556Z,95516.63
2023-10-20T01:41:36.284Z,95510.78
2023-10-20T01:44:03.547Z,95511.91
2023-10-20T01:46:30.442Z,95508.09
2023-10-20T01:48:57.154Z,95511.19
2023-10-20T01:51:23.971Z,95509.56
2023-10-20T01:53:50.709Z,95502.31
2023-10-20T01:56:17.449Z,95496.97
2023-10-20T01:58:44.201Z,95485.81
2023-10-20T02:01:10.998Z,95480.41
2023-10-20T02:03:38.397Z,95480.75
2023-10-20T02:06:06.180Z,95478.84
2023-10-20T02:08:33.649Z,95471.16
2023-10-20T02:11:01.356Z,95458.91
2023-10-20T02:13:28.431Z,95463.13
2023-10-20T02:15:55.165Z,95470.97
2023-10-20T02:18:22.057Z,95466.00
2023-10-20T02:21:04.794Z,95458.56
2023-10-20T02:23:32.542Z,95453.91
2023-10-20T02:26:00.845Z,95431.56
2023-10-20T02:28:27.952Z,95428.47
2023-10-20T02:30:56.414Z,95418.13
2023-10-20T02:33:23.201Z,95418.31
2023-10-20T02:35:50.025Z,95413.66
2023-10-20T02:38:16.737Z,95404.06
2023-10-20T02:40:53.185Z,95403.66
2023-10-20T02:43:19.906Z,95399.84
2023-10-20T02:45:56.440Z,95399.06
2023-10-20T02:48:24.088Z,95384.16
2023-10-20T02:50:51.364Z,95379.91
2023-10-20T02:53:19.375Z,95376.88
2023-10-20T02:55:47.213Z,95376.81
2023-10-20T02:58:15.606Z,95363.44
2023-10-20T03:00:45.904Z,95347.03
2023-10-20T03:03:13.644Z,95349.69
2023-10-20T03:05:43.371Z,95344.69
2023-10-20T03:08:10.494Z,95336.66
2023-10-20T03:10:37.746Z,95331.66
2023-10-20T03:13:05.595Z,95327.78
2023-10-20T03:15:33.091Z,95334.63
2023-10-20T03:18:03.855Z,95333.91
2023-10-20T03:20:31.498Z,95322.50
2023-10-20T03:22:58.438Z,95313.63
2023-10-20T03:25:25.352Z,95307.50
2023-10-20T03:27:52.079Z,95301.78
2023-10-20T03:30:19.426Z,95296.78
2023-10-20T03:32:49.953Z,95291.88
2023-10-20T03:35:17.529Z,95291.78
2023-10-20T03:37:44.464Z,95286.44
2023-10-20T03:40:14.827Z,95276.16
2023-10-20T03:42:44.829Z,95266.50
2023-10-20T03:45:12.049Z,95252.69
2023-10-20T03:47:41.750Z,95268.47
2023-10-20T03:50:17.763Z,95271.56
2023-10-20T03:52:47.890Z,95258.53
2023-10-20T03:55:14.958Z,95258.13
2023-10-20T03:57:45.702Z,95257.41
2023-10-20T04:00:19.323Z,95247.34
2023-10-20T04:02:48.093Z,95239.66
2023-10-20T04:05:16.612Z,95239.25
2023-10-20T04:07:43.682Z,95243.13
2023-10-20T04:10:11.091Z,95243.50
2023-10-20T04:12:39.623Z,95247.69
2023-10-20T04:15:10.045Z,95244.59
2023-10-20T04:17:40.049Z,95236.56
2023-10-20T04:20:08.426Z,95235.22
2023-10-20T04:22:35.432Z,95228.50
2023-10-20T04:25:02.505Z,95222.81
2023-10-20T04:27:51.084Z,95227.38
2023-10-20T04:30:37.255Z,95229.63
2023-10-20T04:33:23.707Z,95217.25
2023-10-20T04:36:09.091Z,95219.97
2023-10-20T04:38:54.729Z,95202.84
2023-10-20T04:41:40.010Z,95179.69
2023-10-20T04:44:15.866Z,95171.88
2023-10-20T04:46:59.062Z,95170.09
2023-10-20T04:49:44.187Z,95160.41
2023-10-20T04:52:29.456Z,95137.97
2023-10-20T04:55:11.193Z,95135.16
2023-10-20T04:57:56.724Z,95143.38
2023-10-20T05:00:23.423Z,95130.72
2023-10-20T05:02:59.809Z,95127.25
2023-10-20T05:05:27.256Z,95134.88
2023-10-20T05:07:54.863Z,95124.94
2023-10-20T05:10:22.015Z,95126.84
2023-10-20T05:12:48.811Z,95125.00
2023-10-20T05:15:16.057Z,95115.03
2023-10-20T05:17:42.901Z,95120.38
2023-10-20T05:20:11.343Z,95119.22
2023-10-20T05:22:38.248Z,95119.91
2023-10-20T05:25:05.603Z,95097.81
2023-10-20T05:27:32.253Z,95098.50
2023-10-20T05:29:58.880Z,95090.56
2023-10-20T05:32:25.825Z,95088.25
2023-10-20T05:34:54.914Z,95081.03
2023-10-20T05:37:23.021Z,95076.84
2023-10-20T05:39:50.029Z,95086.81
2023-10-20T05:42:17.931Z,95088.69
2023-10-20T05:45:03.222Z,95082.53
2023-10-20T05:47:33.073Z,95066.13
2023-10-20T05:50:02.180Z,95064.16
2023-10-20T05:52:29.029Z,95064.25
2023-10-20T05:54:57.616Z,95057.75
2023-10-20T05:57:24.293Z,95050.88
2023-10-20T05:59:51.594Z,95045.13
2023-10-20T06:02:18.261Z,95053.16
2023-10-20T06:04:44.969Z,95056.59
2023-10-20T06:07:12.223Z,95037.47
2023-10-20T06:09:38.954Z,95011.81
2023-10-20T06:12:08.268Z,95002.25
2023-10-20T06:14:37.472Z,94991.53
2023-10-20T06:17:04.495Z,94994.22
2023-10-20T06:19:32.719Z,94978.94
2023-10-20T06:22:01.677Z,94983.53
2023-10-20T06:24:29.245Z,94978.94
2023-10-20T06:27:03.983Z,94966.75
2023-10-20T06:29:34.320Z,94948.25
2023-10-20T06:32:19.672Z,94950.97
2023-10-20T06:34:47.831Z,94938.81
2023-10-20T06:37:23.586Z,94930.63
2023-10-20T06:39:50.239Z,94938.72
2023-10-20T06:42:17.946Z,94928.38
2023-10-20T06:44:44.769Z,94941.06
2023-10-20T06:47:12.998Z,94927.59
2023-10-20T06:49:39.697Z,94908.50
2023-10-20T06:52:07.093Z,94915.06
2023-10-20T06:54:34.086Z,94903.94
2023-10-20T06:57:01.029Z,94884.84
2023-10-20T06:59:28.078Z,94873.00
2023-10-20T07:02:01.407Z,94861.88
2023-10-20T07:04:28.838Z,94856.53
2023-10-20T07:06:57.955Z,94839.28
2023-10-20T07:09:25.328Z,94819.38
2023-10-20T07:11:53.553Z,94806.41
2023-10-20T07:14:20.441Z,94796.44
2023-10-20T07:16:47.322Z,94807.09
2023-10-20T07:19:14.124Z,94811.28
2023-10-20T07:21:41.476Z,94822.00
2023-10-20T07:24:08.618Z,94835.13
2023-10-20T07:26:36.185Z,94833.56
2023-10-20T07:29:03.397Z,94816.38
2023-10-20T07:31:30.157Z,94796.53
2023-10-20T07:33:57.465Z,94778.94
2023-10-20T07:36:24.202Z,94767.75
2023-10-20T07:38:50.987Z,94760.50
2023-10-20T07:41:18.564Z,94779.66
2023-10-20T07:43:45.415Z,94773.16
2023-10-20T07:46:18.430Z,94772.31
2023-10-20T07:48:45.497Z,94773.81
2023-10-20T07:51:12.783Z,94767.28
2023-10-20T07:53:39.832Z,94757.00
2023-10-20T07:56:06.918Z,94755.47
2023-10-20T07:58:34.263Z,94750.06
2023-10-20T08:01:02.026Z,94748.19
2023-10-20T08:03:29.141Z,94746.66
2023-10-20T08:05:56.598Z,94743.97
2023-10-20T08:08:23.501Z,94741.31
2023-10-20T08:10:50.866Z,94748.19
2023-10-20T08:13:18.913Z,94744.75
2023-10-20T08:15:45.830Z,94743.63
2023-10-20T08:18:12.550Z,94737.09
2023-10-20T08:20:39.962Z,94729.06
2023-10-20T08:23:06.777Z,94747.38
2023-10-20T08:25:37.199Z,94748.53
2023-10-20T08:28:04.120Z,94752.72
2023-10-20T08:30:30.870Z,94752.31
2023-10-20T08:32:57.618Z,94753.59
2023-10-20T08:35:24.491Z,94759.59
2023-10-20T08:37:51.219Z,94754.59
2023-10-20T08:40:18.015Z,94746.97
2023-10-20T08:42:45.010Z,94747.75
2023-10-20T08:45:15.950Z,94751.56
2023-10-20T08:47:45.597Z,94757.28
2023-10-20T08:50:12.686Z,94750.00
2023-10-20T08:52:40.495Z,94744.03
2023-10-20T08:55:09.038Z,94726.31
2023-10-20T08:57:35.796Z,94734.31
2023-10-20T09:00:02.699Z,94737.00
2023-10-20T09:02:39.637Z,94743.19
2023-10-20T09:05:08.334Z,94752.38
2023-10-20T09:07:35.321Z,94758.50
2023-10-20T09:10:02.561Z,94760.41
2023-10-20T09:12:32.991Z,94763.84
2023-10-20T09:14:59.910Z,94770.72
2023-10-20T09:17:27.148Z,94777.97
2023-10-20T09:20:12.573Z,94791.00
2023-10-20T09:22:39.418Z,94784.47
2023-10-20T09:25:09.060Z,94790.25
2023-10-20T09:27:36.008Z,94805.47
2023-10-20T09:30:03.167Z,94800.91
2023-10-20T09:32:29.938Z,94797.81
2023-10-20T09:34:58.778Z,94797.81
2023-10-20T09:37:25.871Z,94805.47
2023-10-20T09:39:53.927Z,94795.19
2023-10-20T09:42:23.171Z,94795.19
2023-10-20T09:45:14.564Z,94791.72
2023-10-20T09:47:41.978Z,94795.13
2023-10-20T09:50:13.029Z,94788.25
2023-10-20T09:52:41.503Z,94785.56
2023-10-20T09:55:09.378Z,94777.97
2023-10-20T09:57:36.080Z,94758.81
2023-10-20T10:00:08.525Z,94758.09
2023-10-20T10:02:35.645Z,94748.47
2023-10-20T10:05:02.504Z,94740.88
2023-10-20T10:07:30.679Z,94741.25
2023-10-20T10:09:58.635Z,94733.22
2023-10-20T10:12:27.163Z,94737.38
2023-10-20T10:15:08.865Z,94733.22
2023-10-20T10:17:48.974Z,94742.75
2023-10-20T10:20:26.263Z,94747.69
2023-10-20T10:23:16.269Z,94765.69
2023-10-20T10:25:48.032Z,94799.31
2023-10-20T10:28:15.869Z,94833.31
2023-10-20T10:30:43.069Z,94855.50
2023-10-20T10:33:11.397Z,94877.25
2023-10-20T10:35:39.406Z,94879.16
2023-10-20T10:38:22.262Z,94883.38
2023-10-20T10:40:56.320Z,94871.19
2023-10-20T10:43:23.365Z,94865.81
2023-10-20T10:45:55.881Z,94873.13
2023-10-20T10:48:29.200Z,94868.59
2023-10-20T10:50:56.076Z,94852.13
2023-10-20T10:53:23.193Z,94839.88
2023-10-20T10:55:49.906Z,94831.13
2023-10-20T10:58:16.655Z,94836.13
2023-10-20T11:00:45.242Z,94836.91
2023-10-20T11:03:13.073Z,94839.56
2023-10-20T11:05:40.547Z,94839.56
2023-10-20T11:08:15.402Z,94829.28
2023-10-20T11:10:47.402Z,94812.09
2023-10-20T11:13:17.088Z,94793.78
2023-10-20T11:15:44.235Z,94812.88
2023-10-20T11:18:13.827Z,94812.13
2023-10-20T11:20:45.122Z,94826.25
2023-10-20T11:23:13.969Z,94832.75
2023-10-20T11:25:43.905Z,94832.75
2023-10-20T11:28:10.753Z,94832.41
2023-10-20T11:30:39.815Z,94832.41
2023-10-20T11:33:07.242Z,94835.91
2023-10-20T11:35:34.685Z,94832.03
2023-10-20T11:38:02.324Z,94816.75
2023-10-20T11:40:29.369Z,94827.88
2023-10-20T11:42:59.121Z,94837.84
2023-10-20T11:45:25.955Z,94841.31
2023-10-20T11:47:53.061Z,94848.19
2023-10-20T11:50:20.629Z,94857.78
2023-10-20T11:52:48.440Z,94865.84
2023-10-20T11:55:15.157Z,94873.50
2023-10-20T11:57:42.095Z,94868.16
2023-10-20T12:00:14.873Z,94878.53
2023-10-20T12:02:42.122Z,94881.59
2023-10-20T12:05:09.818Z,94879.34
2023-10-20T12:07:36.762Z,94880.94
2023-10-20T12:10:07.068Z,94875.94
2023-10-20T12:12:34.574Z,94875.16
2023-10-20T12:15:04.513Z,94871.38
2023-10-20T12:17:31.520Z,94883.59
2023-10-20T12:19:58.752Z,94879.47
2023-10-20T12:22:27.286Z,94885.00
2023-10-20T12:24:54.276Z,94900.75
2023-10-20T12:27:22.352Z,94902.25
2023-10-20T12:29:49.559Z,94898.66
2023-10-20T12:32:16.420Z,94912.00
2023-10-20T12:34:43.154Z,94910.09
2023-10-20T12:37:09.911Z,94922.22
2023-10-20T12:39:36.625Z,94917.16
2023-10-20T12:42:06.746Z,94915.31
2023-10-20T12:44:37.485Z,94919.03
2023-10-20T12:47:04.689Z,94928.97
2023-10-20T12:49:33.026Z,94922.63
2023-10-20T12:52:00.602Z,94925.72
2023-10-20T12:54:27.593Z,94919.22
2023-10-20T12:56:54.332Z,94911.22
2023-10-20T12:59:21.102Z,94916.16
2023-10-20T13:01:48.450Z,94924.94
2023-10-20T13:04:15.352Z,94923.84
2023-10-20T13:06:53.931Z,94934.56
2023-10-20T13:09:25.430Z,94934.25
2023-10-20T13:11:52.301Z,94934.25
2023-10-20T13:14:19.083Z,94938.47
2023-10-20T13:16:46.262Z,94940.75
2023-10-20T13:19:15.078Z,94948.44
2023-10-20T13:21:42.090Z,94944.22
2023-10-20T13:24:09.061Z,94950.38
2023-10-20T13:26:35.777Z,94939.28
2023-10-20T13:29:02.512Z,94956.13
2023-10-20T13:31:29.931Z,94956.53
2023-10-20T13:33:56.644Z,94959.25
2023-10-20T13:36:23.271Z,94961.56
2023-10-20T13:38:50.079Z,94960.88
2023-10-20T13:41:16.941Z,94946.59
2023-10-20T13:43:44.728Z,94950.44
2023-10-20T13:46:11.462Z,94955.88
2023-10-20T13:48:38.491Z,94966.63
2023-10-20T13:51:05.344Z,94965.88
2023-10-20T13:53:32.183Z,94975.47
2023-10-20T13:55:58.886Z,94981.22
2023-10-20T13:58:26.693Z,94997.75
2023-10-20T14:00:53.526Z,94994.31
2023-10-20T14:03:20.404Z,95005.03
2023-10-20T14:05:56.558Z,95006.16
2023-10-20T14:08:23.831Z,95007.34
2023-10-20T14:10:50.653Z,95000.78
2023-10-20T14:13:17.747Z,94994.31
2023-10-20T14:15:45.155Z,95010.03
2023-10-20T14:18:12.641Z,95010.13
2023-10-20T14:20:40.540Z,95013.56
2023-10-20T14:23:08.863Z,95009.34
2023-10-20T14:25:36.149Z,95003.94
2023-10-20T14:28:03.245Z,95008.19
2023-10-20T14:30:29.943Z,95023.53
2023-10-20T14:32:56.739Z,95027.38
2023-10-20T14:35:23.634Z,95029.34
2023-10-20T14:37:50.966Z,95020.88
2023-10-20T14:40:17.702Z,95030.50
2023-10-20T14:42:44.900Z,95032.44
2023-10-20T14:45:11.922Z,95036.31
2023-10-20T14:47:38.723Z,95052.41
2023-10-20T14:50:05.777Z,95046.28
2023-10-20T14:52:32.501Z,95044.78
2023-10-20T14:54:59.447Z,95049.34
2023-10-20T14:57:26.069Z,95046.28
2023-10-20T14:59:52.878Z,95053.22
2023-10-20T15:02:19.703Z,95060.53
2023-10-20T15:04:47.229Z,95062.41
2023-10-20T15:07:14.161Z,95062.78
2023-10-20T15:09:40.809Z,95068.56
2023-10-20T15:12:08.820Z,95075.41
2023-10-20T15:14:35.860Z,95081.19
2023-10-20T15:17:02.574Z,95092.72
2023-10-20T15:19:30.549Z,95099.25
2023-10-20T15:21:57.420Z,95106.91
2023-10-20T15:24:24.071Z,95100.78
2023-10-20T15:26:51.735Z,95101.19
2023-10-20T15:29:19.014Z,95103.91
2023-10-20T15:31:45.896Z,95113.91
2023-10-20T15:34:12.764Z,95120.75
2023-10-20T15:36:49.651Z,95116.56
2023-10-20T15:39:16.763Z,95137.66
2023-10-20T15:41:43.558Z,95141.84
2023-10-20T15:44:10.481Z,95129.09
2023-10-20T15:46:37.318Z,95136.13
2023-10-20T15:49:05.140Z,95140.53
2023-10-20T15:51:31.821Z,95144.41
2023-10-20T15:53:58.558Z,95145.16
2023-10-20T15:56:25.888Z,95142.75
2023-10-20T15:58:52.590Z,95136.72
2023-10-20T16:01:19.352Z,95143.59
2023-10-20T16:03:46.222Z,95149.72
2023-10-20T16:06:12.999Z,95182.31
2023-10-20T16:08:39.824Z,95187.47
2023-10-20T16:11:06.759Z,95187.03
2023-10-20T16:13:33.461Z,95197.88
2023-10-20T16:16:00.193Z,95212.38
2023-10-20T16:18:26.992Z,95221.28
2023-10-20T16:20:54.164Z,95226.22
2023-10-20T16:23:22.075Z,95216.66
2023-10-20T16:25:48.731Z,95219.84
2023-10-20T16:28:16.012Z,95221.59
2023-10-20T16:30:42.716Z,95225.75
2023-10-20T16:33:09.748Z,95228.06
2023-10-20T16:35:36.641Z,95231.47
2023-10-20T16:38:03.385Z,95231.91
2023-10-20T16:40:32.585Z,95233.06
2023-10-20T16:42:59.344Z,95230.00
2023-10-20T16:45:26.091Z,95236.47
2023-10-20T16:47:52.915Z,95241.09
2023-10-20T16:50:19.641Z,95254.50
2023-10-20T16:52:46.348Z,95272.50
2023-10-20T16:55:13.132Z,95272.88
2023-10-20T16:57:39.795Z,95267.56
2023-10-20T17:00:07.411Z,95267.91
2023-10-20T17:02:34.214Z,95290.91
2023-10-20T17:05:00.996Z,95300.88
2023-10-20T17:07:27.749Z,95302.00
2023-10-20T17:09:54.497Z,95296.63
2023-10-20T17:12:21.568Z,95290.13
2023-10-20T17:14:48.566Z,95289.75
2023-10-20T17:17:15.658Z,95304.69
2023-10-20T17:19:42.319Z,95311.19
2023-10-20T17:22:08.987Z,95314.63
2023-10-20T17:24:35.695Z,95328.78
2023-10-20T17:27:04.135Z,95341.06
2023-10-20T17:29:30.965Z,95340.94
2023-10-20T17:31:57.741Z,95354.34
2023-10-20T17:34:24.904Z,95353.59
2023-10-20T17:36:52.776Z,95352.47
2023-10-20T17:39:19.654Z,95342.88
2023-10-20T17:41:46.795Z,95342.53
2023-10-20T17:44:13.670Z,95345.91
2023-10-20T17:46:41.344Z,95357.81
2023-10-20T17:49:08.377Z,95360.88
2023-10-20T17:51:36.147Z,95369.69
2023-10-20T17:54:02.977Z,95368.03
2023-10-20T17:56:29.715Z,95376.75
2023-10-20T17:58:56.377Z,95370.72
2023-10-20T18:01:23.421Z,95380.72
2023-10-20T18:03:50.241Z,95387.47
2023-10-20T18:06:21.991Z,95391.28
2023-10-20T18:08:50.974Z,95388.94
2023-10-20T18:11:20.712Z,95383.19
2023-10-20T18:13:48.051Z,95371.75
2023-10-20T18:16:18.665Z,95361.78
2023-10-20T18:18:51.797Z,95378.72
2023-10-20T18:21:19.962Z,95395.47
2023-10-20T18:23:48.201Z,95396.59
2023-10-20T18:26:15.190Z,95393.19
2023-10-20T18:28:42.234Z,95390.53
2023-10-20T18:31:13.181Z,95392.84
2023-10-20T18:33:40.229Z,95390.03
2023-10-20T18:36:07.419Z,95395.03
2023-10-20T18:38:34.285Z,95382.78
2023-10-20T18:41:02.736Z,95382.41
2023-10-20T18:43:29.873Z,95399.28
2023-10-20T18:46:00.092Z,95410.41
2023-10-20T18:48:28.188Z,95416.47
2023-10-20T18:51:07.629Z,95424.53
2023-10-20T18:53:34.809Z,95419.53
2023-10-20T18:56:01.603Z,95426.81
2023-10-20T18:58:28.650Z,95410.72
2023-10-20T19:00:55.426Z,95424.13
2023-10-20T19:03:22.312Z,95429.84
2023-10-20T19:05:49.748Z,95427.53
2023-10-20T19:08:17.156Z,95429.06
2023-10-20T19:10:43.967Z,95424.50
2023-10-20T19:13:10.921Z,95424.41
2023-10-20T19:15:37.627Z,95409.13
2023-10-20T19:18:05.147Z,95399.84
2023-10-20T19:20:31.995Z,95402.91
2023-10-20T19:22:58.870Z,95399.47
2023-10-20T19:25:25.530Z,95409.81
2023-10-20T19:27:52.264Z,95410.94
2023-10-20T19:30:18.966Z,95414.41
2023-10-20T19:32:45.733Z,95423.22
2023-10-20T19:35:12.685Z,95430.91
2023-10-20T19:37:39.337Z,95425.13
2023-10-20T19:40:07.126Z,95433.53
2023-10-20T19:42:33.804Z,95428.94
2023-10-20T19:45:02.385Z,95432.03
2023-10-20T19:47:29.240Z,95436.69
2023-10-20T19:49:55.937Z,95457.03
2023-10-20T19:52:22.597Z,95458.84
2023-10-20T19:54:49.502Z,95461.88
2023-10-20T19:57:16.158Z,95464.91
2023-10-20T19:59:42.917Z,95466.75
2023-10-20T20:02:09.860Z,95476.72
2023-10-20T20:04:37.414Z,95468.69
2023-10-20T20:07:04.185Z,95461.41
2023-10-20T20:09:30.832Z,95461.41
2023-10-20T20:11:58.174Z,95462.59
2023-10-20T20:14:24.808Z,95459.50
2023-10-20T20:16:51.482Z,95455.34
2023-10-20T20:19:18.164Z,95451.13
2023-10-20T20:21:46.395Z,95466.00
2023-10-20T20:24:13.153Z,95465.66
2023-10-20T20:26:39.891Z,95475.94
2023-10-20T20:29:06.612Z,95480.25
2023-10-20T20:31:33.299Z,95473.75
2023-10-20T20:33:59.951Z,95467.19
2023-10-20T20:36:26.924Z,95460.88
2023-10-20T20:38:53.638Z,95469.75
2023-10-20T20:41:20.296Z,95469.75
2023-10-20T20:43:46.916Z,95475.84
2023-10-20T20:46:13.682Z,95476.19
2023-10-20T20:48:40.487Z,95483.53
2023-10-20T20:51:11.125Z,95489.22
2023-10-20T20:53:38.041Z,95478.88
2023-10-20T20:56:05.150Z,95468.44
2023-10-20T20:58:32.433Z,95476.41
2023-10-20T21:01:01.333Z,95486.78
2023-10-20T21:03:28.267Z,95488.06
2023-10-20T21:06:01.407Z,95493.16
2023-10-20T21:08:28.359Z,95494.63
2023-10-20T21:10:55.174Z,95493.94
2023-10-20T21:13:21.949Z,95497.22
2023-10-20T21:15:48.638Z,95516.41
2023-10-20T21:18:15.469Z,95517.91
2023-10-20T21:20:42.898Z,95525.34
2023-10-20T21:23:09.606Z,95511.75
2023-10-20T21:25:38.055Z,95520.69
2023-10-20T21:28:05.922Z,95516.88
2023-10-20T21:30:36.343Z,95517.56
2023-10-20T21:33:03.551Z,95518.25
2023-10-20T21:35:31.094Z,95522.06
2023-10-20T21:37:57.781Z,95521.19
2023-10-20T21:40:24.427Z,95524.19
2023-10-20T21:42:51.110Z,95509.38
2023-10-20T21:45:17.868Z,95510.13
2023-10-20T21:47:44.590Z,95511.59
2023-10-20T21:50:11.295Z,95506.34
2023-10-20T21:52:38.256Z,95504.00
2023-10-20T21:55:05.274Z,95504.72
2023-10-20T21:57:31.998Z,95497.03
2023-10-20T21:59:58.840Z,95504.28
2023-10-20T22:02:25.586Z,95497.81
2023-10-20T22:04:55.165Z,95504.41
2023-10-20T22:07:21.835Z,95504.41
2023-10-20T22:09:54.069Z,95509.91
2023-10-20T22:12:21.808Z,95506.50
2023-10-20T22:14:48.487Z,95508.72
2023-10-20T22:17:15.123Z,95509.44
2023-10-20T22:19:41.766Z,95523.97
2023-10-20T22:22:08.875Z,95521.34
2023-10-20T22:24:35.522Z,95514.78
2023-10-20T22:27:02.226Z,95515.63
2023-10-20T22:29:29.099Z,95520.25
2023-10-20T22:31:55.739Z,95510.28
2023-10-20T22:34:22.384Z,95506.50
2023-10-20T22:36:49.030Z,95512.56
2023-10-20T22:39:16.077Z,95517.47
2023-10-20T22:41:42.857Z,95519.41
2023-10-20T22:44:09.746Z,95522.34
2023-10-20T22:46:36.461Z,95522.44
2023-10-20T22:49:03.357Z,95524.31
2023-10-20T22:51:30.094Z,95523.50
2023-10-20T22:53:56.752Z,95526.16
2023-10-20T22:56:24.035Z,95525.38
2023-10-20T22:58:50.808Z,95523.88
2023-10-20T23:01:17.534Z,95522.78
2023-10-20T23:03:44.216Z,95533.06
2023-10-20T23:06:11.149Z,95533.16
2023-10-20T23:08:37.976Z,95539.22
2023-10-20T23:11:04.916Z,95538.00
2023-10-20T23:13:31.623Z,95541.88
2023-10-20T23:15:58.489Z,95551.03
2023-10-20T23:18:25.394Z,95556.81
2023-10-20T23:20:55.640Z,95554.38
2023-10-20T23:23:22.520Z,95549.75
2023-10-20T23:25:49.223Z,95553.56
2023-10-20T23:28:15.858Z,95555.91
2023-10-20T23:30:42.536Z,95551.34
2023-10-20T23:33:09.412Z,95550.91
2023-10-20T23:35:36.148Z,95549.50
2023-10-20T23:38:02.863Z,95554.38
2023-10-20T23:40:29.504Z,95554.38
2023-10-20T23:42:56.132Z,95568.09
2023-10-20T23:45:22.956Z,95564.22
2023-10-20T23:47:49.656Z,95559.28
2023-10-20T23:50:16.592Z,95556.59
2023-10-20T23:52:43.258Z,95555.41
2023-10-20T23:55:10.018Z,95573.03
2023-10-20T23:57:36.656Z,95576.50
